Burlington, WA

9:18 AM PDT on August 30, 2014 (GMT -0700)
Whidbey Island Naval Air Station | Change Station
CLOSE
Current Station
Airport
Location: Whidbey Island,
Elevation: 46 ft
Nearby Weather Stations

Elev 46 ft 48.35 °N, 122.66 °W | Updated 22 minutes ago

Mostly Cloudy
Mostly Cloudy
62 °F
Feels Like 62 °F
N
7
Wind Variable Wind from ESE

Today
High -- | Low -- °F
--% Chance of Precip.
Yesterday
High -- | Low -- °F
Precip. -- in
6:24 AM 7:54 PM
Waxing Crescent, 23% visible
Pressure 29.92 in
Visibility 10.0 miles
Clouds Few 600 ft
Mostly Cloudy 3300 ft
Mostly Cloudy 10000 ft
Mostly Cloudy 20000 ft
Dew Point 57 °F
Humidity 84%
Rainfall 0.04 in
Snow Depth Not available.
UV 1 out of 12
Pollen .60 out of 12
PM2.5 Good
Flu Activity Not available.
METAR KNUW 301556Z 12006KT 10SM FEW006 BKN033 BKN100 BKN200 17/14 A2991 RMK AO2 SLP132 T01670139 $

More Conditions Fewer Conditions

Pressure 29.92 in
Visibility 10.0 miles
Clouds Few 600 ft
Mostly Cloudy 3300 ft
Mostly Cloudy 10000 ft
Mostly Cloudy 20000 ft
Dew Point 57 °F
Humidity 84%
Rainfall 0.04 in
Snow Depth Not available.
UV 1 out of 12
Pollen .60 out of 12
PM2.5 Good
Flu Activity Not available.
METAR KNUW 301556Z 12006KT 10SM FEW006 BKN033 BKN100 BKN200 17/14 A2991 RMK AO2 SLP132 T01670139 $

More Conditions Fewer Conditions

10-Day Weather Forecast

Almanac

Astronomy

Aug. 30, 2014 Rise Set
Actual Time 6:24 AM PDT 7:54 PM PDT
Civil Twilight 5:51 AM PDT 8:27 PM PDT
Nautical Twilight 5:11 AM PDT 9:07 PM PDT
Astronomical Twilight 4:28 AM PDT 9:50 PM PDT
Moon 11:43 AM PDT 10:05 PM PDT
Length of Visible Light 14h 36m
Length of Day
13h 30m
Tomorrow will be 3m 24s shorter.
Waxing Crescent, 23% of the Moon is Illuminated
Today
Waxing Crescent
Sep 2
First Quarter
Sep 8
Full
Sep 15
Last Quarter
Sep 24
New

Today's Extremes

State Highs State Lows

Community

WunderPhotos

Upload Photos

1,748,556 photos uploaded!

WunderBlogs® & News

Nearby

Air Quality

  Air Quality AQ Index Pollutant
Yesterday Good
OZONE
Yesterday Good
PM2.5
Current Good
PM2.5
Saturday Good
OZONE
Saturday Good
PM2.5
Sunday Good
OZONE
Sunday Good
PM2.5
Monday Good
OZONE
Monday Good
PM2.5
Tuesday Good
OZONE
Tuesday Good
PM2.5

Snow Depth

Station Depth Elevation
Elbow Lake 0 in 3200 ft
Mf Nooksack 0 in 4980 ft
Dungeness 0 in 4100 ft
Alpine Meadows 0 in 3500 ft
Mount Crag 0 in 4050 ft

Earthquake Activity

City Distance Mag. Time & Date
No recent earthquake activity has been reported nearby.
Minimum magnitude displayed is 2.5.

Coastal Water Temperatures

Place Temperature
Port Townsend, WA 53.1 °F
Friday Harbor, WA 52.0 °F
Port Angeles, WA 53.1 °F

Nearby Weather Stations